Time;durP1;ratioP1;P1;durP2;ratioP2;P2;SDS_P1;SDS_P2;PMS_P1;PMS_P2;Temp;Humidity;BMP_temperature;BMP_pressure;BME280_temperature;BME280_humidity;BME280_pressure;Samples;Min_cycle;Max_cycle;Signal;HPM_P1;HPM_P2
2023/05/13 00:01:37;;;;;;;4.25;2.20;;;;;;;8.48;100.00;98838.03;5012275;28;20483;-70
2023/05/13 00:04:07;;;;;;;5.38;2.50;;;;;;;8.49;100.00;98847.81;5033510;28;20029;-74
2023/05/13 00:06:32;;;;;;;6.18;3.00;;;;;;;8.52;100.00;98831.25;5034973;28;20036;-75
2023/05/13 00:08:58;;;;;;;5.75;2.45;;;;;;;8.34;100.00;98818.13;5022385;28;20116;-74
2023/05/13 00:11:23;;;;;;;2.88;2.10;;;;;;;8.34;100.00;98810.06;5026498;28;20498;-74
2023/05/13 00:13:49;;;;;;;4.40;2.42;;;;;;;8.36;100.00;98829.56;5012387;28;20034;-74
2023/05/13 00:16:14;;;;;;;4.00;2.13;;;;;;;8.35;100.00;98826.03;5016941;28;20029;-74
2023/05/13 00:18:39;;;;;;;3.75;2.45;;;;;;;8.39;100.00;98834.63;5033463;28;20387;-74
2023/05/13 00:21:05;;;;;;;4.38;2.75;;;;;;;8.44;100.00;98839.44;5028163;28;20030;-74
2023/05/13 00:23:31;;;;;;;5.93;2.17;;;;;;;8.35;100.00;98835.97;5039171;28;20032;-75
2023/05/13 00:26:02;;;;;;;4.00;2.70;;;;;;;8.22;100.00;98827.72;5027925;28;20029;-75
2023/05/13 00:28:28;;;;;;;3.45;2.30;;;;;;;8.12;100.00;98841.47;5019511;28;20036;-74
2023/05/13 00:30:53;;;;;;;3.90;2.33;;;;;;;8.06;100.00;98831.44;5006367;28;20025;-75
2023/05/13 00:33:18;;;;;;;4.20;2.17;;;;;;;8.09;100.00;98839.97;5036652;28;20029;-75
2023/05/13 00:35:44;;;;;;;4.55;2.70;;;;;;;8.03;100.00;98824.56;5034195;28;20082;-75
2023/05/13 00:38:09;;;;;;;3.60;2.90;;;;;;;8.13;100.00;98849.38;5034638;28;20371;-76
2023/05/13 00:40:38;;;;;;;5.85;3.45;;;;;;;8.17;100.00;98849.84;5034295;28;20030;-75
2023/05/13 00:43:04;;;;;;;6.78;3.85;;;;;;;8.02;100.00;98831.00;5011296;28;20087;-75
2023/05/13 00:45:30;;;;;;;4.82;3.33;;;;;;;7.98;100.00;98828.84;5031557;28;20192;-75
2023/05/13 00:47:55;;;;;;;5.45;3.88;;;;;;;7.98;100.00;98842.31;5016095;28;20475;-76
2023/05/13 00:50:21;;;;;;;4.93;3.25;;;;;;;8.02;100.00;98849.03;5021502;28;20044;-76
2023/05/13 00:52:48;;;;;;;6.07;3.65;;;;;;;8.13;100.00;98844.00;5008720;28;20028;-77
2023/05/13 00:55:13;;;;;;;4.75;3.17;;;;;;;7.92;100.00;98822.34;5015291;28;20033;-75
2023/05/13 00:57:39;;;;;;;6.40;3.17;;;;;;;7.91;100.00;98836.81;5034746;28;20063;-75
2023/05/13 01:00:07;;;;;;;5.78;3.08;;;;;;;7.82;100.00;98835.25;5028056;28;20033;-77
2023/05/13 01:02:42;;;;;;;5.63;3.03;;;;;;;7.85;100.00;98857.25;5024030;28;20475;-75
2023/05/13 01:05:31;;;;;;;9.85;3.08;;;;;;;7.79;100.00;98851.78;5022952;28;20087;-75
2023/05/13 01:08:27;;;;;;;5.38;3.22;;;;;;;7.60;100.00;98842.41;5032421;28;20083;-77
2023/05/13 01:10:57;;;;;;;6.30;3.25;;;;;;;7.58;100.00;98845.25;5018461;28;20125;-76
2023/05/13 01:13:26;;;;;;;5.93;3.10;;;;;;;7.59;100.00;98856.88;5035612;28;20549;-75
2023/05/13 01:16:05;;;;;;;6.18;3.83;;;;;;;7.52;100.00;98862.16;5019213;28;20040;-75
2023/05/13 01:18:36;;;;;;;7.47;3.22;;;;;;;7.36;100.00;98852.38;5033703;28;20065;-78
2023/05/13 01:21:03;;;;;;;3.92;3.00;;;;;;;7.38;100.00;98873.69;5030210;28;20026;-75
2023/05/13 01:23:29;;;;;;;7.70;3.20;;;;;;;7.21;100.00;98843.41;5032551;28;20390;-75
2023/05/13 01:25:54;;;;;;;6.50;3.95;;;;;;;7.25;100.00;98850.91;5030066;28;20021;-76
2023/05/13 01:28:19;;;;;;;5.03;3.13;;;;;;;7.29;100.00;98862.19;5008673;28;20032;-75
2023/05/13 01:30:46;;;;;;;4.35;3.17;;;;;;;7.24;100.00;98861.88;5026884;28;20132;-75
2023/05/13 01:33:12;;;;;;;5.07;3.00;;;;;;;7.12;100.00;98842.63;5032688;28;20032;-75
2023/05/13 01:35:37;;;;;;;4.55;3.22;;;;;;;7.13;100.00;98852.38;5016106;28;20025;-75
2023/05/13 01:38:03;;;;;;;9.77;3.63;;;;;;;7.10;100.00;98846.50;5034194;28;20032;-75
2023/05/13 01:40:30;;;;;;;5.43;3.08;;;;;;;7.16;100.00;98872.72;5024072;28;20096;-75
2023/05/13 01:42:56;;;;;;;3.15;2.25;;;;;;;7.09;100.00;98853.75;5029192;28;20021;-75
2023/05/13 01:45:21;;;;;;;5.70;2.63;;;;;;;7.02;100.00;98842.88;5033167;28;20560;-77
2023/05/13 01:47:46;;;;;;;3.85;2.55;;;;;;;7.00;100.00;98852.16;5019846;28;20033;-76
2023/05/13 01:50:12;;;;;;;6.82;3.05;;;;;;;6.99;100.00;98847.78;5026629;28;20603;-77
2023/05/13 01:52:37;;;;;;;5.28;3.08;;;;;;;7.15;100.00;98879.09;5028131;28;20044;-76
2023/05/13 01:55:02;;;;;;;3.67;2.63;;;;;;;6.91;100.00;98847.84;5017751;28;20498;-75
2023/05/13 01:57:28;;;;;;;5.30;2.55;;;;;;;6.96;100.00;98845.44;5019700;28;20159;-75
2023/05/13 01:59:54;;;;;;;3.90;3.05;;;;;;;6.91;100.00;98847.84;5023033;28;20084;-76
2023/05/13 02:02:20;;;;;;;4.28;2.92;;;;;;;6.96;100.00;98858.88;5032325;28;20093;-75
2023/05/13 02:04:45;;;;;;;5.57;3.42;;;;;;;6.96;100.00;98850.81;5014139;28;20390;-76
2023/05/13 02:07:10;;;;;;;5.82;3.58;;;;;;;7.16;100.00;98873.53;5041315;28;20505;-75
2023/05/13 02:09:36;;;;;;;7.50;3.40;;;;;;;7.16;100.00;98870.84;5020028;28;20036;-75
2023/05/13 02:12:01;;;;;;;6.63;3.20;;;;;;;7.14;100.00;98859.44;5012999;28;20037;-76
2023/05/13 02:14:26;;;;;;;4.47;3.33;;;;;;;7.20;100.00;98866.81;5030381;28;20032;-75
2023/05/13 02:16:52;;;;;;;6.47;3.65;;;;;;;7.22;100.00;98878.19;5026160;28;20036;-76
2023/05/13 02:19:18;;;;;;;6.00;2.85;;;;;;;7.13;100.00;98868.53;5020552;28;20044;-75
2023/05/13 02:21:44;;;;;;;4.20;3.20;;;;;;;7.12;100.00;98861.47;5031790;28;20064;-75
2023/05/13 02:24:09;;;;;;;4.38;3.00;;;;;;;7.10;100.00;98858.13;5016497;28;20104;-78
2023/05/13 02:26:35;;;;;;;4.90;2.92;;;;;;;6.98;100.00;98840.72;5021895;28;20025;-77
2023/05/13 02:29:00;;;;;;;5.65;2.88;;;;;;;7.10;100.00;98868.03;5029976;28;20022;-75
2023/05/13 02:31:25;;;;;;;5.43;2.72;;;;;;;7.02;100.00;98858.16;5030950;28;20033;-75
2023/05/13 02:33:51;;;;;;;5.07;2.90;;;;;;;7.15;100.00;98873.72;5014238;28;20032;-75
2023/05/13 02:36:16;;;;;;;3.83;2.70;;;;;;;7.15;100.00;98884.47;5032483;28;20029;-76
2023/05/13 02:38:41;;;;;;;3.38;2.60;;;;;;;7.14;100.00;98877.44;5029761;28;20029;-77
2023/05/13 02:41:07;;;;;;;9.02;3.03;;;;;;;7.03;100.00;98870.63;5014208;28;20057;-76
2023/05/13 02:43:32;;;;;;;4.32;2.67;;;;;;;6.95;100.00;98857.22;5012816;28;20021;-75
2023/05/13 02:45:58;;;;;;;5.28;2.97;;;;;;;6.90;100.00;98851.56;5021419;28;20025;-75
2023/05/13 02:48:23;;;;;;;4.88;3.00;;;;;;;6.84;100.00;98844.16;5035906;28;20549;-77
2023/05/13 02:50:48;;;;;;;4.78;3.00;;;;;;;7.08;100.00;98878.16;5032113;28;20021;-78
2023/05/13 02:53:14;;;;;;;6.28;3.42;;;;;;;6.95;100.00;98862.59;5032068;28;20086;-75
2023/05/13 02:55:39;;;;;;;4.05;2.95;;;;;;;7.03;100.00;98865.25;5029574;28;20017;-76
2023/05/13 02:58:04;;;;;;;4.78;3.15;;;;;;;6.93;100.00;98843.13;5013656;28;20388;-76
2023/05/13 03:00:30;;;;;;;3.72;2.70;;;;;;;6.99;100.00;98853.97;5021102;28;20068;-75
2023/05/13 03:02:56;;;;;;;5.40;3.58;;;;;;;6.98;100.00;98851.50;5035301;28;20108;-75
2023/05/13 03:05:21;;;;;;;5.63;3.30;;;;;;;7.07;100.00;98853.09;5031621;28;20027;-76
2023/05/13 03:07:47;;;;;;;4.22;3.15;;;;;;;7.27;100.00;98876.84;5013994;28;20029;-76
2023/05/13 03:10:12;;;;;;;4.03;3.03;;;;;;;7.14;100.00;98845.97;5034185;28;20118;-76
2023/05/13 03:12:37;;;;;;;5.70;3.03;;;;;;;7.23;100.00;98861.06;5021228;28;20029;-75
2023/05/13 03:15:03;;;;;;;4.00;3.03;;;;;;;7.36;100.00;98867.66;5014439;28;20364;-75
2023/05/13 03:17:32;;;;;;;4.03;2.80;;;;;;;7.31;100.00;98856.59;5028397;28;20059;-74
2023/05/13 03:19:57;;;;;;;6.30;3.30;;;;;;;7.27;100.00;98836.47;5030516;28;20129;-75
2023/05/13 03:22:23;;;;;;;3.63;2.80;;;;;;;7.34;100.00;98857.09;5016909;28;20108;-75
2023/05/13 03:24:48;;;;;;;4.95;2.78;;;;;;;7.38;100.00;98858.38;5030854;28;20080;-74
2023/05/13 03:27:13;;;;;;;4.10;2.80;;;;;;;7.35;100.00;98844.47;5017014;28;20029;-75
2023/05/13 03:29:38;;;;;;;8.10;2.75;;;;;;;7.43;100.00;98856.00;5021696;28;20029;-75
2023/05/13 03:32:05;;;;;;;5.28;2.60;;;;;;;7.50;100.00;98860.66;5025789;28;20036;-75
2023/05/13 03:34:31;;;;;;;5.18;3.03;;;;;;;7.53;100.00;98860.28;5018369;28;20014;-75
2023/05/13 03:36:56;;;;;;;6.68;2.67;;;;;;;7.57;100.00;98856.19;5030929;28;20537;-75
2023/05/13 03:39:21;;;;;;;3.25;2.42;;;;;;;7.69;100.00;98857.44;5016136;28;20025;-75
2023/05/13 03:41:47;;;;;;;3.72;2.60;;;;;;;7.76;100.00;98846.78;5023909;28;20112;-75
2023/05/13 03:44:12;;;;;;;5.65;3.05;;;;;;;7.93;100.00;98872.50;5019082;28;20021;-75
2023/05/13 03:46:37;;;;;;;5.28;2.95;;;;;;;7.78;100.00;98828.56;5013025;28;20029;-75
2023/05/13 03:49:02;;;;;;;4.53;2.40;;;;;;;7.92;100.00;98835.81;5031831;28;20075;-76
2023/05/13 03:51:28;;;;;;;4.07;2.60;;;;;;;7.88;100.00;98831.81;5031873;28;20029;-75
2023/05/13 03:53:53;;;;;;;5.00;2.67;;;;;;;8.05;100.00;98844.09;5030947;28;20048;-76
2023/05/13 03:56:18;;;;;;;3.45;2.45;;;;;;;7.97;100.00;98827.19;5011711;28;20053;-75
2023/05/13 03:58:44;;;;;;;4.75;2.38;;;;;;;8.09;100.00;98849.94;5024288;28;20399;-76
2023/05/13 04:01:09;;;;;;;3.72;2.60;;;;;;;8.13;100.00;98835.91;5027243;28;20072;-75
2023/05/13 04:03:34;;;;;;;2.85;2.35;;;;;;;8.28;100.00;98856.63;5023932;28;20087;-75
2023/05/13 04:06:00;;;;;;;7.28;2.75;;;;;;;8.45;100.00;98871.59;5014462;28;20034;-74
2023/05/13 04:08:26;;;;;;;3.95;2.80;;;;;;;8.43;100.00;98862.84;5030963;28;20064;-75
2023/05/13 04:10:51;;;;;;;5.50;2.72;;;;;;;8.52;100.00;98861.75;5009436;28;20384;-76
2023/05/13 04:13:17;;;;;;;3.20;2.35;;;;;;;8.59;100.00;98871.75;5014864;28;20037;-75
2023/05/13 04:15:42;;;;;;;3.97;2.42;;;;;;;8.49;100.00;98834.31;5015446;28;20029;-75
2023/05/13 04:18:07;;;;;;;4.15;2.60;;;;;;;8.75;100.00;98872.38;5035114;28;20021;-75
2023/05/13 04:20:33;;;;;;;4.38;2.33;;;;;;;8.70;100.00;98847.03;5019757;28;20030;-76
2023/05/13 04:22:58;;;;;;;2.50;2.15;;;;;;;8.93;100.00;98853.09;5029993;28;20034;-76
2023/05/13 04:25:23;;;;;;;5.28;2.30;;;;;;;9.12;100.00;98867.81;5027635;28;20033;-75
2023/05/13 04:27:49;;;;;;;4.68;2.75;;;;;;;9.12;100.00;98848.06;5034677;28;20025;-75
2023/05/13 04:30:14;;;;;;;7.70;3.53;;;;;;;9.29;100.00;98851.34;5013609;28;20403;-75
2023/05/13 04:32:40;;;;;;;4.82;2.60;;;;;;;9.43;100.00;98859.38;5024500;28;20029;-75
2023/05/13 04:35:06;;;;;;;4.22;2.47;;;;;;;9.45;100.00;98859.16;5023151;28;20025;-75
2023/05/13 04:37:32;;;;;;;5.35;2.85;;;;;;;9.42;100.00;98852.28;5032734;28;20026;-74
2023/05/13 04:39:57;;;;;;;2.50;2.00;;;;;;;9.37;100.00;98827.72;5007817;28;20051;-79
2023/05/13 04:42:23;;;;;;;6.80;2.35;;;;;;;9.35;100.00;98829.81;5015424;28;20030;-75
2023/05/13 04:44:48;;;;;;;5.03;2.70;;;;;;;9.50;100.00;98863.97;5026088;28;20025;-73
2023/05/13 04:47:13;;;;;;;6.70;2.50;;;;;;;9.58;100.00;98861.97;5033657;28;20033;-72
2023/05/13 04:49:38;;;;;;;6.22;2.40;;;;;;;9.55;100.00;98853.44;5032369;28;20026;-73
2023/05/13 04:52:05;;;;;;;3.47;2.30;;;;;;;9.64;100.00;98861.22;5032319;28;20471;-74
2023/05/13 04:54:30;;;;;;;3.75;2.47;;;;;;;9.64;100.00;98852.25;5040845;28;20017;-74
2023/05/13 04:56:55;;;;;;;3.28;2.17;;;;;;;9.78;100.00;98845.91;5003454;28;20435;-73
2023/05/13 04:59:21;;;;;;;3.65;2.40;;;;;;;9.86;100.00;98859.28;5026545;28;20025;-73
2023/05/13 05:01:47;;;;;;;4.38;2.25;;;;;;;9.87;100.00;98855.53;5028664;28;20033;-74
2023/05/13 05:04:12;;;;;;;3.85;2.30;;;;;;;9.93;100.00;98850.38;5030743;28;20025;-73
2023/05/13 05:06:37;;;;;;;4.05;2.40;;;;;;;10.00;100.00;98845.84;5030248;28;20099;-74
2023/05/13 05:09:03;;;;;;;7.43;2.50;;;;;;;10.12;100.00;98865.88;5028368;28;20057;-73
2023/05/13 05:11:29;;;;;;;4.70;2.50;;;;;;;10.08;100.00;98861.91;5013545;28;20029;-74
2023/05/13 05:13:54;;;;;;;5.63;2.55;;;;;;;10.16;100.00;98848.22;5023997;28;20387;-73
2023/05/13 05:16:21;;;;;;;5.53;2.33;;;;;;;10.30;100.00;98860.00;5033078;28;20029;-75
2023/05/13 05:18:46;;;;;;;3.55;2.45;;;;;;;10.34;100.00;98865.81;5015329;28;20079;-73
2023/05/13 05:21:12;;;;;;;2.40;2.10;;;;;;;10.56;100.00;98870.09;5023944;28;20029;-75
2023/05/13 05:23:37;;;;;;;4.00;2.25;;;;;;;10.61;100.00;98859.50;5032042;28;20034;-74
2023/05/13 05:26:03;;;;;;;3.42;2.45;;;;;;;10.82;100.00;98861.25;5035365;28;20039;-79
2023/05/13 05:28:29;;;;;;;3.05;2.33;;;;;;;10.91;100.00;98849.19;5021317;28;20025;-76
2023/05/13 05:30:54;;;;;;;3.42;2.45;;;;;;;11.11;100.00;98870.91;5010682;28;20119;-75
2023/05/13 05:33:20;;;;;;;3.33;2.13;;;;;;;11.26;100.00;98872.59;5029588;28;20029;-74
2023/05/13 05:35:46;;;;;;;2.85;2.20;;;;;;;11.31;100.00;98881.75;5026673;28;20040;-71
2023/05/13 05:38:11;;;;;;;4.25;2.60;;;;;;;11.23;100.00;98870.28;5032767;28;20025;-70
2023/05/13 05:40:41;;;;;;;3.35;2.40;;;;;;;11.17;100.00;98880.06;5027538;28;20419;-71
2023/05/13 05:43:07;;;;;;;7.88;2.60;;;;;;;11.25;100.00;98882.59;5028912;28;20475;-71
2023/05/13 05:45:33;;;;;;;5.70;1.92;;;;;;;11.39;100.00;98891.56;5026269;28;20033;-71
2023/05/13 05:47:59;;;;;;;3.00;2.30;;;;;;;11.35;100.00;98880.31;5026662;28;20101;-71
2023/05/13 05:50:24;;;;;;;3.20;2.30;;;;;;;11.46;100.00;98876.16;5013312;28;20121;-71
2023/05/13 05:52:49;;;;;;;2.60;2.00;;;;;;;11.49;100.00;98878.44;5022723;28;20017;-72
2023/05/13 05:55:15;;;;;;;3.67;2.30;;;;;;;11.68;100.00;98881.38;5015484;28;20056;-79
2023/05/13 05:57:40;;;;;;;4.47;2.55;;;;;;;11.63;100.00;98858.44;5033885;28;20487;-71
2023/05/13 06:00:06;;;;;;;3.03;2.00;;;;;;;11.80;100.00;98882.41;5055058;22;20229;-74
2023/05/13 06:02:32;;;;;;;2.70;2.00;;;;;;;11.76;100.00;98879.31;5027249;28;20033;-73
2023/05/13 06:04:57;;;;;;;4.70;2.28;;;;;;;11.75;100.00;98879.50;5032472;28;20486;-74
2023/05/13 06:07:22;;;;;;;4.53;2.20;;;;;;;11.67;100.00;98887.84;5027795;28;20380;-74
2023/05/13 06:09:47;;;;;;;3.20;2.17;;;;;;;11.71;100.00;98881.81;5030052;28;20105;-74
2023/05/13 06:12:13;;;;;;;2.75;2.13;;;;;;;11.87;100.00;98902.25;5006399;28;20030;-73
2023/05/13 06:14:38;;;;;;;6.97;1.98;;;;;;;11.77;100.00;98899.94;4981419;28;20048;-73
2023/05/13 06:17:03;;;;;;;3.17;2.00;;;;;;;11.83;100.00;98903.69;5002939;28;20643;-74
2023/05/13 06:19:29;;;;;;;10.55;3.13;;;;;;;11.76;100.00;98908.25;5005426;28;20034;-74
2023/05/13 06:21:54;;;;;;;3.22;2.00;;;;;;;11.59;100.00;98889.69;5002602;28;20562;-74
2023/05/13 06:24:19;;;;;;;4.43;2.33;;;;;;;11.71;100.00;98899.91;5002508;28;20078;-74
2023/05/13 06:26:45;;;;;;;3.35;2.15;;;;;;;11.65;100.00;98896.16;5006305;28;20083;-73
2023/05/13 06:29:10;;;;;;;3.13;2.00;;;;;;;11.75;100.00;98896.59;5011809;28;20037;-74
2023/05/13 06:31:36;;;;;;;4.60;2.22;;;;;;;11.80;100.00;98904.09;5011788;28;20022;-74
2023/05/13 06:34:01;;;;;;;3.38;2.22;;;;;;;11.91;100.00;98908.91;5004254;28;20036;-74
2023/05/13 06:36:26;;;;;;;3.13;2.33;;;;;;;11.83;100.00;98896.38;5006951;28;20072;-74
2023/05/13 06:38:52;;;;;;;3.60;2.30;;;;;;;11.86;100.00;98908.72;5013695;28;20101;-73
2023/05/13 06:41:17;;;;;;;4.82;2.00;;;;;;;11.72;100.00;98898.91;5007020;28;20038;-72
2023/05/13 06:43:44;;;;;;;6.15;2.35;;;;;;;11.86;100.00;98906.00;5002750;28;20546;-74
2023/05/13 06:46:10;;;;;;;5.43;2.28;;;;;;;11.97;100.00;98894.53;5007366;28;20025;-74
2023/05/13 06:48:36;;;;;;;6.55;2.20;;;;;;;12.11;100.00;98899.94;4996962;28;20053;-75
2023/05/13 06:51:01;;;;;;;3.92;2.22;;;;;;;12.16;100.00;98902.84;5003171;28;20108;-77
2023/05/13 06:53:26;;;;;;;3.28;2.47;;;;;;;12.11;100.00;98895.34;4996355;28;20018;-76
2023/05/13 06:55:51;;;;;;;3.08;2.10;;;;;;;12.02;100.00;98892.00;5013530;28;20022;-78
2023/05/13 06:58:17;;;;;;;5.88;2.65;;;;;;;11.96;100.00;98906.41;5015261;28;20025;-77
2023/05/13 07:00:42;;;;;;;4.25;2.28;;;;;;;12.03;100.00;98903.72;5018419;28;20022;-76
2023/05/13 07:03:09;;;;;;;4.00;2.30;;;;;;;12.04;100.00;98908.91;5027793;28;20053;-75
2023/05/13 07:05:35;;;;;;;5.13;2.40;;;;;;;12.02;100.00;98907.44;5015598;28;20034;-77
2023/05/13 07:08:05;;;;;;;5.63;2.10;;;;;;;12.07;100.00;98908.47;5030165;28;20063;-75
2023/05/13 07:10:31;;;;;;;4.28;2.50;;;;;;;12.05;100.00;98896.16;5003792;28;20048;-76
2023/05/13 07:12:56;;;;;;;4.65;2.20;;;;;;;12.05;100.00;98916.00;5025313;28;20026;-76
2023/05/13 07:15:23;;;;;;;6.20;2.50;;;;;;;12.09;100.00;98907.44;5026809;28;20025;-76
2023/05/13 07:17:48;;;;;;;3.03;2.40;;;;;;;12.19;100.00;98913.28;5026103;28;20061;-76
2023/05/13 07:20:13;;;;;;;3.08;2.42;;;;;;;12.28;100.00;98917.41;5007653;28;20057;-76
2023/05/13 07:22:39;;;;;;;3.08;2.20;;;;;;;12.33;100.00;98909.47;4989994;28;20088;-75
2023/05/13 07:25:05;;;;;;;6.13;2.50;;;;;;;12.28;100.00;98906.56;5002287;28;20033;-73
2023/05/13 07:27:30;;;;;;;2.83;2.20;;;;;;;12.40;100.00;98910.31;4990136;28;20037;-80
2023/05/13 07:29:55;;;;;;;5.47;2.08;;;;;;;12.62;100.00;98915.47;4997471;28;20438;-76
2023/05/13 07:32:21;;;;;;;3.22;2.13;;;;;;;12.66;100.00;98914.81;4995125;28;20062;-77
2023/05/13 07:34:46;;;;;;;2.80;1.85;;;;;;;12.78;100.00;98916.88;4995624;28;20357;-75
2023/05/13 07:37:11;;;;;;;3.40;2.17;;;;;;;12.79;100.00;98908.53;4987612;28;20076;-76
2023/05/13 07:39:37;;;;;;;3.45;2.65;;;;;;;12.89;100.00;98911.63;5010236;28;20072;-75
2023/05/13 07:42:02;;;;;;;2.60;1.90;;;;;;;12.90;100.00;98905.13;5012722;28;20475;-76
2023/05/13 07:44:28;;;;;;;2.10;1.65;;;;;;;12.87;100.00;98913.69;4999423;28;20139;-72
2023/05/13 07:46:54;;;;;;;3.67;2.53;;;;;;;12.90;100.00;98910.56;5008033;28;20030;-76
2023/05/13 07:49:20;;;;;;;3.70;2.33;;;;;;;12.74;100.00;98904.78;5002503;28;20029;-72
2023/05/13 07:51:46;;;;;;;3.75;2.50;;;;;;;12.78;100.00;98906.84;5014351;28;20044;-72
2023/05/13 07:54:11;;;;;;;3.65;2.40;;;;;;;12.66;100.00;98903.13;5015339;28;20026;-72
2023/05/13 07:56:37;;;;;;;3.13;2.13;;;;;;;12.76;100.00;98914.38;5012686;28;20033;-72
2023/05/13 07:59:03;;;;;;;3.30;2.53;;;;;;;12.82;100.00;98910.78;4992517;28;20056;-72
2023/05/13 08:01:28;;;;;;;4.65;2.58;;;;;;;13.00;100.00;98909.28;5014107;28;20029;-72
2023/05/13 08:03:54;;;;;;;9.20;3.67;;;;;;;12.94;100.00;98906.38;5015074;28;20137;-77
2023/05/13 08:06:19;;;;;;;3.90;2.40;;;;;;;13.03;100.00;98906.13;4993128;28;20041;-79
2023/05/13 08:08:44;;;;;;;4.18;2.05;;;;;;;13.18;100.00;98893.09;4996589;28;20562;-76
2023/05/13 08:11:09;;;;;;;3.88;2.33;;;;;;;13.39;100.00;98900.09;5014775;28;20025;-79
2023/05/13 08:13:35;;;;;;;13.48;2.50;;;;;;;13.50;100.00;98895.84;4999473;28;20022;-76
2023/05/13 08:16:03;;;;;;;5.53;2.53;;;;;;;13.51;100.00;98919.22;5012460;28;20036;-75
2023/05/13 08:18:29;;;;;;;6.47;2.45;;;;;;;13.60;100.00;98904.34;5008902;28;20501;-75
2023/05/13 08:20:54;;;;;;;4.10;2.47;;;;;;;13.68;100.00;98903.22;5011291;28;20129;-75
2023/05/13 08:23:19;;;;;;;4.22;2.47;;;;;;;13.64;100.00;98893.84;5014919;28;20114;-75
2023/05/13 08:25:45;;;;;;;4.22;2.50;;;;;;;13.80;100.00;98904.97;5012885;28;20483;-75
2023/05/13 08:28:10;;;;;;;5.88;2.72;;;;;;;13.87;100.00;98921.25;5011171;28;20037;-74
2023/05/13 08:30:35;;;;;;;3.17;2.15;;;;;;;13.79;100.00;98914.22;5011870;28;20380;-76
2023/05/13 08:33:01;;;;;;;2.65;2.00;;;;;;;13.75;100.00;98904.84;5002306;28;20399;-75
2023/05/13 08:35:26;;;;;;;4.95;2.20;;;;;;;13.85;100.00;98911.66;4997286;28;20084;-74
2023/05/13 08:37:51;;;;;;;2.42;2.08;;;;;;;14.02;100.00;98908.16;5000274;28;20121;-75
2023/05/13 08:40:17;;;;;;;3.20;2.17;;;;;;;14.33;100.00;98911.00;5014790;28;20030;-76
2023/05/13 08:42:46;;;;;;;3.58;2.30;;;;;;;14.59;100.00;98927.09;5000335;28;20120;-75
2023/05/13 08:45:12;;;;;;;4.43;2.35;;;;;;;14.75;100.00;98914.78;5001647;28;20084;-76
2023/05/13 08:48:00;;;;;;;3.13;1.92;;;;;;;14.53;100.00;98911.66;5008644;28;20041;-76
2023/05/13 08:50:27;;;;;;;3.60;2.50;;;;;;;14.63;100.00;98922.03;5015402;28;20025;-76
2023/05/13 08:52:52;;;;;;;6.25;2.10;;;;;;;14.81;100.00;98929.38;5007797;28;20487;-76
2023/05/13 08:55:19;;;;;;;4.45;2.20;;;;;;;15.03;100.00;98914.19;5010820;28;20037;-77
2023/05/13 08:57:44;;;;;;;2.58;1.75;;;;;;;15.41;100.00;98932.16;4999057;28;22122;-75
2023/05/13 09:00:10;;;;;;;3.00;1.80;;;;;;;15.95;100.00;98922.09;4993204;28;20072;-76
2023/05/13 09:02:36;;;;;;;2.58;1.90;;;;;;;16.35;100.00;98918.69;5004873;28;20033;-75
2023/05/13 09:05:07;;;;;;;5.90;2.03;;;;;;;16.82;100.00;98926.84;5008847;28;20092;-74
2023/05/13 09:07:37;;;;;;;3.03;2.05;;;;;;;17.06;100.00;98921.31;5012591;28;20026;-74
2023/05/13 09:10:04;;;;;;;4.50;1.90;;;;;;;17.29;100.00;98934.91;5013788;28;20025;-74
2023/05/13 09:12:45;;;;;;;3.42;2.22;;;;;;;17.41;100.00;98928.56;4992795;28;20053;-74
2023/05/13 09:15:19;;;;;;;3.40;2.30;;;;;;;17.45;100.00;98918.81;5007056;28;20540;-74
2023/05/13 09:17:54;;;;;;;5.00;2.22;;;;;;;17.49;100.00;98917.22;5009955;28;20046;-75
2023/05/13 09:20:21;;;;;;;3.28;2.13;;;;;;;17.75;100.00;98924.78;4995194;28;20029;-75
2023/05/13 09:22:48;;;;;;;3.22;1.80;;;;;;;18.03;100.00;98909.44;4988321;28;20030;-74
2023/05/13 09:25:15;;;;;;;4.78;2.20;;;;;;;18.25;100.00;98917.69;5001811;28;20025;-75
2023/05/13 09:27:43;;;;;;;6.20;2.28;;;;;;;18.11;100.00;98909.00;4993742;28;20029;-75
2023/05/13 09:30:10;;;;;;;4.45;2.13;;;;;;;18.08;100.00;98911.44;5012077;28;20038;-75
2023/05/13 09:32:36;;;;;;;4.07;2.38;;;;;;;17.60;100.00;98904.56;5012238;28;20573;-75
2023/05/13 09:35:15;;;;;;;3.38;2.08;;;;;;;17.05;100.00;98908.72;5013114;28;20038;-75
2023/05/13 09:37:48;;;;;;;3.00;1.92;;;;;;;17.08;100.00;98911.81;5009187;28;20038;-74
2023/05/13 09:40:16;;;;;;;4.05;2.17;;;;;;;16.96;100.00;98908.28;5003657;28;20033;-74
2023/05/13 09:42:45;;;;;;;4.97;2.47;;;;;;;16.98;100.00;98908.03;5008949;28;20029;-76
2023/05/13 09:45:12;;;;;;;4.72;2.05;;;;;;;17.09;100.00;98921.66;4997011;28;20030;-73
2023/05/13 09:47:39;;;;;;;3.28;2.08;;;;;;;17.13;100.00;98916.53;5009197;28;20022;-73
2023/05/13 09:50:05;;;;;;;7.20;2.20;;;;;;;17.25;100.00;98908.28;5008180;28;20034;-73
2023/05/13 09:52:32;;;;;;;3.70;2.05;;;;;;;16.98;100.00;98916.25;5005562;28;20032;-73
2023/05/13 09:54:58;;;;;;;3.80;2.10;;;;;;;16.95;100.00;98913.97;4993138;28;20061;-74
2023/05/13 09:57:26;;;;;;;3.63;1.70;;;;;;;17.27;100.00;98909.72;4992070;28;20034;-73
2023/05/13 09:59:59;;;;;;;3.47;2.05;;;;;;;17.04;100.00;98931.66;5005265;28;20033;-73
2023/05/13 10:02:25;;;;;;;2.08;1.60;;;;;;;17.25;100.00;98925.53;5002605;28;20033;-73
2023/05/13 10:04:52;;;;;;;5.22;2.28;;;;;;;16.79;100.00;98923.75;5009341;28;20037;-73
2023/05/13 10:07:23;;;;;;;5.18;2.15;;;;;;;17.23;100.00;98921.38;5006427;28;20026;-73
2023/05/13 10:09:50;;;;;;;3.40;2.03;;;;;;;17.21;100.00;98931.72;4999678;28;20033;-73
2023/05/13 10:12:19;;;;;;;2.47;2.05;;;;;;;17.37;100.00;98922.75;5012275;28;20026;-73
2023/05/13 10:14:46;;;;;;;4.38;2.15;;;;;;;17.41;100.00;98923.91;5005721;28;20046;-72
2023/05/13 10:17:13;;;;;;;2.90;2.13;;;;;;;17.41;100.00;98929.38;5005320;28;20092;-73
2023/05/13 10:19:39;;;;;;;2.30;1.85;;;;;;;16.66;100.00;98933.00;5012078;28;20420;-73
2023/05/13 10:22:04;;;;;;;2.78;2.13;;;;;;;16.38;100.00;98936.50;5009159;28;20434;-71
2023/05/13 10:24:31;;;;;;;3.55;2.40;;;;;;;16.67;100.00;98926.50;5011293;28;20076;-71
2023/05/13 10:26:57;;;;;;;3.08;2.30;;;;;;;16.81;100.00;98925.19;5013251;28;20084;-71
2023/05/13 10:29:25;;;;;;;2.72;2.15;;;;;;;16.85;100.00;98928.28;5012244;28;20052;-71
2023/05/13 10:31:50;;;;;;;4.00;2.10;;;;;;;16.73;100.00;98925.53;5011080;28;20403;-71
2023/05/13 10:34:16;;;;;;;4.95;2.28;;;;;;;16.25;100.00;98934.00;5013076;28;20022;-70
2023/05/13 10:37:08;;;;;;;2.70;1.92;;;;;;;16.41;100.00;98936.84;5009728;28;20049;-71
2023/05/13 10:39:53;;;;;;;4.18;2.30;;;;;;;16.41;100.00;98939.56;5007398;28;20033;-71
2023/05/13 10:42:39;;;;;;;3.20;2.00;;;;;;;16.25;100.00;98929.38;4988683;28;20387;-71
2023/05/13 10:45:06;;;;;;;7.93;2.25;;;;;;;16.07;100.00;98919.38;4988299;28;20490;-71
2023/05/13 10:47:32;;;;;;;4.25;1.90;;;;;;;15.79;100.00;98911.88;5001508;28;20076;-71
2023/05/13 10:50:00;;;;;;;2.90;1.80;;;;;;;15.68;100.00;98929.84;5000975;28;20040;-71
2023/05/13 10:52:40;;;;;;;4.32;1.90;;;;;;;15.74;100.00;98930.84;5000996;28;20481;-72
2023/05/13 10:55:15;;;;;;;2.42;1.67;;;;;;;15.72;100.00;98935.72;5009228;28;20022;-72
2023/05/13 10:57:40;;;;;;;3.05;2.15;;;;;;;15.73;100.00;98918.28;5005625;28;20026;-71
2023/05/13 11:00:17;;;;;;;2.47;1.98;;;;;;;15.80;100.00;98920.88;5002814;28;20396;-71
2023/05/13 11:02:43;;;;;;;3.88;2.60;;;;;;;15.86;100.00;98928.97;5011403;28;20025;-71
2023/05/13 11:05:08;;;;;;;3.17;2.20;;;;;;;16.25;100.00;98925.81;5015657;28;20494;-71
2023/05/13 11:07:40;;;;;;;2.38;2.00;;;;;;;16.41;100.00;98925.09;4992852;28;20029;-71
2023/05/13 11:10:28;;;;;;;3.80;2.17;;;;;;;16.72;100.00;98925.78;5012681;28;20030;-72
2023/05/13 11:13:23;;;;;;;3.08;2.08;;;;;;;17.20;100.00;98922.69;5007984;28;20030;-72
2023/05/13 11:15:53;;;;;;;2.80;1.98;;;;;;;18.03;100.00;98930.50;5010089;28;20090;-72
2023/05/13 11:18:28;;;;;;;3.67;2.15;;;;;;;18.27;100.00;98921.03;5013971;28;20033;-72
2023/05/13 11:20:53;;;;;;;3.90;2.03;;;;;;;18.35;100.00;98925.25;5008356;28;20120;-72
2023/05/13 11:23:19;;;;;;;2.35;1.77;;;;;;;18.24;100.00;98926.19;4984773;28;20220;-72
2023/05/13 11:25:45;;;;;;;2.63;1.80;;;;;;;19.00;100.00;98916.31;5028038;28;20036;-71
2023/05/13 11:28:17;;;;;;;3.03;1.67;;;;;;;19.51;100.00;98923.44;5024018;28;20030;-71